createdAt,value
2024-03-11T00:02:00.148Z,51.78
2024-03-11T00:04:31.221Z,50.63
2024-03-11T00:07:00.972Z,53.75
2024-03-11T00:09:34.902Z,59.53
2024-03-11T00:12:05.510Z,57.88
2024-03-11T00:14:35.850Z,51.58
2024-03-11T00:19:35.111Z,51.35
2024-03-11T00:22:04.633Z,52.40
2024-03-11T00:24:34.402Z,56.50
2024-03-11T00:27:10.369Z,56.15
2024-03-11T00:29:41.570Z,53.42
2024-03-11T00:32:12.108Z,59.25
2024-03-11T00:34:44.154Z,56.65
2024-03-11T00:37:15.010Z,50.05
2024-03-11T00:39:45.051Z,55.40
2024-03-11T00:42:14.710Z,55.42
2024-03-11T00:44:44.211Z,54.95
2024-03-11T00:47:14.419Z,60.27
2024-03-11T00:49:44.228Z,56.88
2024-03-11T00:52:13.725Z,61.42
2024-03-11T00:54:44.481Z,48.40
2024-03-11T00:57:14.272Z,54.30
2024-03-11T00:59:46.144Z,57.40
2024-03-11T01:02:17.091Z,55.35
2024-03-11T01:04:47.554Z,50.38
2024-03-11T01:07:25.212Z,56.78
2024-03-11T01:09:58.049Z,49.42
2024-03-11T01:12:28.998Z,52.58
2024-03-11T01:14:58.550Z,65.80
2024-03-11T01:17:28.059Z,56.30
2024-03-11T01:20:00.107Z,60.57
2024-03-11T01:22:29.850Z,49.78
2024-03-11T01:25:01.142Z,52.55
2024-03-11T01:27:30.664Z,54.15
2024-03-11T01:30:04.833Z,57.30
2024-03-11T01:32:34.840Z,55.22
2024-03-11T01:35:09.861Z,55.72
2024-03-11T01:37:39.733Z,51.80
2024-03-11T01:40:13.489Z,58.90
2024-03-11T01:42:46.098Z,53.78
2024-03-11T01:45:17.189Z,60.33
2024-03-11T01:47:47.023Z,52.63
2024-03-11T01:50:21.381Z,54.17
2024-03-11T01:52:59.276Z,51.03
2024-03-11T01:55:30.149Z,51.70
2024-03-11T01:58:01.829Z,56.17
2024-03-11T02:00:32.390Z,51.50
2024-03-11T02:03:01.927Z,46.85
2024-03-11T02:05:31.621Z,52.00
2024-03-11T02:08:04.711Z,55.90
2024-03-11T02:10:34.490Z,55.63
2024-03-11T02:13:04.005Z,48.15
2024-03-11T02:15:34.278Z,49.30
2024-03-11T02:18:04.134Z,57.70
2024-03-11T02:20:34.307Z,55.17
2024-03-11T02:23:08.529Z,50.30
2024-03-11T02:25:38.707Z,52.92
2024-03-11T02:28:09.264Z,48.33
2024-03-11T02:30:40.513Z,48.95
2024-03-11T02:33:10.067Z,46.90
2024-03-11T02:35:39.662Z,45.40
2024-03-11T02:38:10.334Z,54.60
2024-03-11T02:40:41.479Z,44.53
2024-03-11T02:43:12.756Z,48.05
2024-03-11T02:45:42.397Z,44.70
2024-03-11T02:48:11.831Z,46.33
2024-03-11T02:50:41.855Z,46.73
2024-03-11T02:53:13.008Z,46.25
2024-03-11T02:55:42.964Z,53.90
2024-03-11T02:58:12.806Z,49.60
2024-03-11T03:00:44.915Z,56.50
2024-03-11T03:03:14.727Z,55.58
2024-03-11T03:05:44.616Z,41.33
2024-03-11T03:08:14.124Z,47.78
2024-03-11T03:10:43.775Z,48.23
2024-03-11T03:13:13.493Z,45.42
2024-03-11T03:15:43.242Z,40.42
2024-03-11T03:18:12.791Z,42.78
2024-03-11T03:20:44.340Z,49.25
2024-03-11T03:23:14.301Z,40.33
2024-03-11T03:25:43.867Z,38.30
2024-03-11T03:28:17.824Z,40.63
2024-03-11T03:30:49.137Z,43.03
2024-03-11T03:33:19.806Z,41.13
2024-03-11T03:35:49.404Z,40.13
2024-03-11T03:38:21.231Z,40.45
2024-03-11T03:40:51.218Z,43.55
2024-03-11T03:43:22.428Z,39.20
2024-03-11T03:45:51.909Z,41.33
2024-03-11T03:48:21.444Z,42.67
2024-03-11T03:50:53.193Z,42.33
2024-03-11T03:53:22.721Z,46.05
2024-03-11T03:55:55.773Z,37.87
2024-03-11T03:58:25.613Z,42.67
2024-03-11T04:00:55.155Z,36.30
2024-03-11T04:03:25.608Z,38.08
2024-03-11T04:05:55.270Z,43.72
2024-03-11T04:08:25.853Z,39.35
2024-03-11T04:10:55.619Z,44.30
2024-03-11T04:13:29.416Z,40.15
2024-03-11T04:15:59.104Z,38.00
2024-03-11T04:18:28.790Z,35.22
2024-03-11T04:21:00.847Z,37.75
2024-03-11T04:23:31.336Z,40.38
2024-03-11T04:26:03.501Z,41.70
2024-03-11T04:28:32.982Z,37.88
2024-03-11T04:31:03.141Z,34.30
2024-03-11T04:33:34.711Z,36.78
2024-03-11T04:36:04.381Z,34.10
2024-03-11T04:38:34.145Z,36.00
2024-03-11T04:41:06.457Z,35.70
2024-03-11T04:43:38.923Z,39.05
2024-03-11T04:46:12.123Z,40.28
2024-03-11T04:48:41.748Z,36.50
2024-03-11T04:51:12.513Z,32.45
2024-03-11T04:53:42.238Z,35.55
2024-03-11T04:56:11.883Z,36.75
2024-03-11T04:58:42.339Z,36.60
2024-03-11T05:01:12.188Z,36.63
2024-03-11T05:03:41.788Z,41.33
2024-03-11T05:06:12.933Z,38.00
2024-03-11T05:08:43.264Z,36.13
2024-03-11T05:11:14.933Z,36.47
2024-03-11T05:13:51.941Z,38.83
2024-03-11T05:16:25.641Z,36.67
2024-03-11T05:18:55.754Z,34.95
2024-03-11T05:21:27.679Z,44.00
2024-03-11T05:23:57.195Z,37.25
2024-03-11T05:26:27.384Z,37.50
2024-03-11T05:31:33.000Z,40.22
2024-03-11T05:34:03.973Z,37.63
2024-03-11T05:36:33.460Z,37.38
2024-03-11T05:39:03.066Z,44.22
2024-03-11T05:41:32.992Z,42.50
2024-03-11T05:44:02.746Z,43.22
2024-03-11T05:46:32.336Z,40.10
2024-03-11T05:49:04.617Z,34.45
2024-03-11T05:51:50.606Z,38.47
2024-03-11T05:54:21.519Z,41.33
2024-03-11T05:56:59.997Z,41.22
2024-03-11T05:59:30.407Z,40.60
2024-03-11T06:02:00.662Z,40.55
2024-03-11T06:07:00.176Z,38.35
2024-03-11T06:12:02.127Z,45.95
2024-03-11T06:14:31.816Z,42.40
2024-03-11T06:17:05.538Z,40.95
2024-03-11T06:19:36.083Z,39.03
2024-03-11T06:22:05.762Z,45.75
2024-03-11T06:24:36.267Z,40.05
2024-03-11T06:27:06.812Z,42.35
2024-03-11T06:29:37.605Z,39.35
2024-03-11T06:32:08.187Z,45.47
2024-03-11T06:34:38.410Z,39.22
2024-03-11T06:39:37.509Z,43.00
2024-03-11T06:42:07.360Z,46.47
2024-03-11T06:44:41.495Z,38.42
2024-03-11T06:47:11.753Z,39.72
2024-03-11T06:49:43.290Z,43.47
2024-03-11T06:52:13.901Z,40.95
2024-03-11T06:54:43.506Z,43.40
2024-03-11T06:57:14.534Z,44.42
2024-03-11T06:59:49.009Z,39.00
2024-03-11T07:02:23.005Z,41.50
2024-03-11T07:04:53.202Z,38.85
2024-03-11T07:09:54.615Z,44.17
2024-03-11T07:12:24.316Z,38.10
2024-03-11T07:14:53.889Z,34.88
2024-03-11T07:17:25.120Z,41.35
2024-03-11T07:19:55.733Z,48.00
2024-03-11T07:22:25.941Z,40.67
2024-03-11T07:27:24.333Z,37.10
2024-03-11T07:29:57.328Z,38.22
2024-03-11T07:32:29.227Z,36.03
2024-03-11T07:35:01.758Z,42.00
2024-03-11T07:37:31.460Z,40.22
2024-03-11T07:40:01.122Z,35.72
2024-03-11T07:42:31.980Z,37.45
2024-03-11T07:45:01.523Z,43.35
2024-03-11T07:47:31.069Z,35.80
2024-03-11T07:50:01.453Z,39.53
2024-03-11T07:52:31.507Z,38.55
2024-03-11T07:57:32.397Z,36.92
2024-03-11T08:00:03.450Z,36.50
2024-03-11T08:02:33.920Z,42.05
2024-03-11T08:05:05.583Z,35.28
2024-03-11T08:07:37.058Z,40.30
2024-03-11T08:10:09.018Z,34.15
2024-03-11T08:12:40.284Z,43.67
2024-03-11T08:15:13.200Z,39.08
2024-03-11T08:17:48.325Z,38.00
2024-03-11T08:20:20.025Z,41.85
2024-03-11T08:22:57.047Z,38.83
2024-03-11T08:25:30.293Z,40.80
2024-03-11T08:28:06.987Z,46.42
2024-03-11T08:30:36.644Z,42.45
2024-03-11T08:33:06.495Z,34.00
2024-03-11T08:35:37.880Z,41.45
2024-03-11T08:38:09.802Z,38.30
2024-03-11T08:40:42.140Z,36.55
2024-03-11T08:43:12.173Z,35.80
2024-03-11T08:45:44.114Z,40.03
2024-03-11T08:48:19.105Z,41.95
2024-03-11T08:50:48.808Z,35.42
2024-03-11T08:53:18.283Z,40.90
2024-03-11T08:55:47.862Z,36.67
2024-03-11T08:58:23.974Z,37.80
2024-03-11T09:00:55.505Z,46.50
2024-03-11T09:03:27.687Z,39.70
2024-03-11T09:05:58.107Z,38.75
2024-03-11T09:08:30.525Z,42.95
2024-03-11T09:11:00.065Z,38.30
2024-03-11T09:13:32.375Z,40.63
2024-03-11T09:16:02.072Z,37.10
2024-03-11T09:18:33.754Z,41.92
2024-03-11T09:21:03.424Z,36.47
2024-03-11T09:23:35.520Z,40.33
2024-03-11T09:26:07.926Z,38.20
2024-03-11T09:28:39.326Z,40.30
2024-03-11T09:31:10.046Z,44.13
2024-03-11T09:33:41.450Z,40.10
2024-03-11T09:36:14.709Z,42.83
2024-03-11T09:38:44.482Z,38.83
2024-03-11T09:41:17.475Z,40.20
2024-03-11T09:43:53.477Z,38.47
2024-03-11T09:46:24.075Z,38.30
2024-03-11T09:48:56.572Z,42.67
2024-03-11T09:51:26.711Z,43.85
2024-03-11T09:56:28.122Z,37.70
2024-03-11T09:59:02.979Z,43.30
2024-03-11T10:01:34.333Z,44.60
2024-03-11T10:04:05.907Z,36.25
2024-03-11T10:06:41.074Z,42.10
2024-03-11T10:09:22.252Z,39.80
2024-03-11T10:12:11.383Z,38.60
2024-03-11T10:14:48.210Z,41.28
2024-03-11T10:17:26.366Z,39.05
2024-03-11T10:20:03.490Z,40.15
2024-03-11T10:22:38.311Z,38.10
2024-03-11T10:25:10.251Z,45.58
2024-03-11T10:27:45.555Z,44.30
2024-03-11T10:30:27.278Z,42.78
2024-03-11T10:32:59.666Z,41.55
2024-03-11T10:35:36.150Z,38.05
2024-03-11T10:38:16.450Z,39.40
2024-03-11T10:40:47.528Z,42.90
2024-03-11T10:43:25.863Z,38.92
2024-03-11T10:45:57.847Z,39.30
2024-03-11T10:48:31.846Z,38.33
2024-03-11T10:51:05.341Z,37.88
2024-03-11T10:53:34.964Z,43.25
2024-03-11T10:56:10.049Z,40.47
2024-03-11T10:58:46.138Z,39.75
2024-03-11T11:01:20.842Z,43.53
2024-03-11T11:03:54.905Z,43.33
2024-03-11T11:06:29.799Z,44.90
2024-03-11T11:09:02.646Z,40.88
2024-03-11T11:11:32.752Z,42.67
2024-03-11T11:16:34.258Z,43.80
2024-03-11T11:19:04.539Z,44.25
2024-03-11T11:21:35.692Z,46.83
2024-03-11T11:24:31.165Z,42.55
2024-03-11T11:27:05.979Z,44.88
2024-03-11T11:29:36.351Z,43.90
2024-03-11T11:32:15.762Z,41.20
2024-03-11T11:34:48.253Z,45.08
2024-03-11T11:37:40.428Z,41.42
2024-03-11T11:40:33.796Z,49.00
2024-03-11T11:43:04.850Z,42.80
2024-03-11T11:46:00.394Z,49.92
2024-03-11T11:48:31.751Z,45.35
2024-03-11T11:51:05.259Z,45.13
2024-03-11T11:53:46.013Z,42.83
2024-03-11T11:56:25.253Z,46.58
2024-03-11T11:59:09.069Z,38.38
2024-03-11T12:01:59.714Z,47.83
2024-03-11T12:04:34.179Z,45.70
2024-03-11T12:07:06.368Z,52.78
2024-03-11T12:09:37.941Z,44.08
2024-03-11T12:12:08.413Z,42.45
2024-03-11T12:14:40.733Z,43.22
2024-03-11T12:17:14.158Z,44.83
2024-03-11T12:19:43.760Z,48.50
2024-03-11T12:22:21.003Z,49.47
2024-03-11T12:25:01.284Z,45.67
2024-03-11T12:27:30.965Z,42.45
2024-03-11T12:30:09.538Z,48.33
2024-03-11T12:32:42.357Z,47.17
2024-03-11T12:35:21.493Z,49.85
2024-03-11T12:37:51.465Z,53.83
2024-03-11T12:40:22.341Z,49.85
2024-03-11T12:42:54.528Z,51.97
2024-03-11T12:45:44.820Z,54.45
2024-03-11T12:48:18.324Z,55.80
2024-03-11T12:50:55.842Z,53.75
2024-03-11T12:53:27.424Z,52.33
2024-03-11T12:56:18.405Z,59.53
2024-03-11T12:58:48.207Z,50.15
2024-03-11T13:01:19.892Z,53.80
2024-03-11T13:03:49.888Z,49.97
2024-03-11T13:06:24.308Z,53.00
2024-03-11T13:08:53.939Z,53.35
2024-03-11T13:11:23.479Z,54.50
2024-03-11T13:13:56.569Z,50.45
2024-03-11T13:16:27.169Z,47.22
2024-03-11T13:18:59.385Z,47.13
2024-03-11T13:21:33.925Z,57.15
2024-03-11T13:24:05.589Z,54.50
2024-03-11T13:26:35.582Z,52.55
2024-03-11T13:29:05.285Z,50.85
2024-03-11T13:31:35.265Z,54.15
2024-03-11T13:34:08.051Z,53.45
2024-03-11T13:36:37.970Z,50.35
2024-03-11T13:39:28.853Z,50.88
2024-03-11T13:42:02.283Z,49.80
2024-03-11T13:44:32.828Z,52.30
2024-03-11T13:49:36.964Z,55.05
2024-03-11T13:52:11.247Z,49.55
2024-03-11T13:54:42.148Z,52.65
2024-03-11T13:57:13.335Z,58.22
2024-03-11T13:59:44.618Z,64.38
2024-03-11T14:02:15.005Z,67.78
2024-03-11T14:04:46.640Z,67.18
2024-03-11T14:07:16.436Z,65.15
2024-03-11T14:09:48.949Z,71.53
2024-03-11T14:12:19.073Z,63.10
2024-03-11T14:14:50.630Z,60.38
2024-03-11T14:17:25.521Z,60.95
2024-03-11T14:20:00.395Z,66.90
2024-03-11T14:22:32.115Z,61.70
2024-03-11T14:25:05.521Z,59.83
2024-03-11T14:27:41.247Z,60.15
2024-03-11T14:30:20.064Z,61.10
2024-03-11T14:32:51.383Z,55.80
2024-03-11T14:35:30.098Z,56.47
2024-03-11T14:38:00.820Z,60.55
2024-03-11T14:40:36.137Z,58.75
2024-03-11T14:43:12.150Z,57.28
2024-03-11T14:45:54.062Z,60.35
2024-03-11T14:48:30.417Z,59.83
2024-03-11T14:51:01.097Z,63.90
2024-03-11T14:53:33.430Z,56.30
2024-03-11T14:56:08.419Z,56.78
2024-03-11T14:58:38.754Z,55.30
2024-03-11T15:03:42.279Z,56.55
2024-03-11T15:06:13.626Z,56.63
2024-03-11T15:08:52.278Z,54.25
2024-03-11T15:11:26.742Z,57.45
2024-03-11T15:13:58.376Z,53.88
2024-03-11T15:16:32.642Z,58.90
2024-03-11T15:19:10.402Z,55.40
2024-03-11T15:21:41.028Z,51.33
2024-03-11T15:24:13.526Z,55.30
2024-03-11T15:26:52.641Z,50.67
2024-03-11T15:29:24.191Z,61.53
2024-03-11T15:31:55.731Z,60.58
2024-03-11T15:34:29.285Z,58.30
2024-03-11T15:37:01.935Z,57.65
2024-03-11T15:39:38.486Z,57.10
2024-03-11T15:42:12.580Z,53.75
2024-03-11T15:44:42.542Z,54.65
2024-03-11T15:47:12.198Z,53.17
2024-03-11T15:49:46.942Z,55.90
2024-03-11T15:52:16.693Z,54.17
2024-03-11T15:54:48.851Z,58.92
2024-03-11T15:57:18.579Z,51.05
2024-03-11T15:59:49.832Z,54.05
2024-03-11T16:02:19.473Z,60.38
2024-03-11T16:04:49.108Z,58.97
2024-03-11T16:07:21.625Z,59.58
2024-03-11T16:10:13.917Z,58.88
2024-03-11T16:12:47.251Z,55.35
2024-03-11T16:15:17.140Z,61.25
2024-03-11T16:17:47.162Z,61.90
2024-03-11T16:20:30.670Z,56.30
2024-03-11T16:23:07.627Z,60.80
2024-03-11T16:25:40.206Z,58.35
2024-03-11T16:28:12.257Z,50.78
2024-03-11T16:30:42.912Z,51.38
2024-03-11T16:33:14.367Z,57.78
2024-03-11T16:35:45.681Z,61.63
2024-03-11T16:38:18.995Z,54.83
2024-03-11T16:40:48.780Z,56.50
2024-03-11T16:43:18.498Z,49.67
2024-03-11T16:45:52.670Z,53.58
2024-03-11T16:48:24.168Z,53.72
2024-03-11T16:50:55.424Z,47.40
2024-03-11T16:53:25.091Z,54.90
2024-03-11T16:55:57.729Z,50.50
2024-03-11T16:58:27.410Z,45.53
2024-03-11T17:00:58.031Z,45.53
2024-03-11T17:03:30.762Z,40.78
2024-03-11T17:06:02.586Z,45.33
2024-03-11T17:08:33.356Z,42.35
2024-03-11T17:11:05.266Z,39.45
2024-03-11T17:13:35.898Z,38.17
2024-03-11T17:16:06.502Z,40.20
2024-03-11T17:18:37.384Z,37.90
2024-03-11T17:21:13.674Z,39.67
2024-03-11T17:23:45.888Z,39.83
2024-03-11T17:26:15.827Z,36.15
2024-03-11T17:28:46.688Z,34.50
2024-03-11T17:31:18.653Z,33.38
2024-03-11T17:33:50.920Z,34.80
2024-03-11T17:36:21.352Z,31.50
2024-03-11T17:38:51.049Z,29.70
2024-03-11T17:41:20.606Z,34.33
2024-03-11T17:43:51.385Z,31.47
2024-03-11T17:46:21.566Z,31.17
2024-03-11T17:49:16.264Z,36.38
2024-03-11T17:51:45.852Z,34.97
2024-03-11T17:54:18.315Z,32.70
2024-03-11T17:56:47.943Z,30.38
2024-03-11T17:59:18.876Z,31.15
2024-03-11T18:01:48.604Z,31.45
2024-03-11T18:04:21.586Z,36.17
2024-03-11T18:06:51.422Z,32.92
2024-03-11T18:09:34.589Z,32.63
2024-03-11T18:12:05.834Z,32.38
2024-03-11T18:14:35.617Z,33.33
2024-03-11T18:17:08.049Z,31.50
2024-03-11T18:19:37.750Z,28.80
2024-03-11T18:22:07.433Z,33.55
2024-03-11T18:24:37.195Z,28.45
2024-03-11T18:27:08.050Z,30.63
2024-03-11T18:29:41.140Z,29.10
2024-03-11T18:32:14.296Z,26.90
2024-03-11T18:34:44.229Z,31.85
2024-03-11T18:37:13.921Z,23.63
2024-03-11T18:39:43.421Z,26.50
2024-03-11T18:42:13.836Z,24.57
2024-03-11T18:44:43.406Z,24.42
2024-03-11T18:47:12.928Z,20.97
2024-03-11T18:49:42.654Z,21.80
2024-03-11T18:52:12.075Z,22.13
2024-03-11T18:54:43.803Z,21.23
2024-03-11T18:57:13.446Z,25.55
2024-03-11T18:59:42.942Z,22.35
2024-03-11T19:02:13.203Z,20.07
2024-03-11T19:07:14.552Z,20.70
2024-03-11T19:09:44.753Z,21.60
2024-03-11T19:12:14.957Z,23.35
2024-03-11T19:14:45.701Z,21.38
2024-03-11T19:17:17.333Z,22.02
2024-03-11T19:19:47.960Z,22.40
2024-03-11T19:22:18.647Z,17.88
2024-03-11T19:24:48.256Z,23.35
2024-03-11T19:27:17.882Z,18.20
2024-03-11T19:29:52.858Z,18.15
2024-03-11T19:32:22.725Z,17.30
2024-03-11T19:34:52.718Z,19.52
2024-03-11T19:37:38.521Z,18.17
2024-03-11T19:40:20.684Z,18.40
2024-03-11T19:43:32.859Z,17.85
2024-03-11T19:46:27.561Z,17.48
2024-03-11T19:49:33.767Z,18.48
2024-03-11T19:52:27.540Z,14.93
2024-03-11T19:55:33.257Z,15.07
2024-03-11T19:58:12.673Z,16.08
2024-03-11T20:01:11.731Z,14.02
2024-03-11T20:04:01.194Z,17.98
2024-03-11T20:07:01.291Z,19.13
2024-03-11T20:09:51.980Z,15.00
2024-03-11T20:12:31.658Z,17.77
2024-03-11T20:15:18.766Z,14.90
2024-03-11T20:18:19.776Z,14.52
2024-03-11T20:21:07.618Z,15.63
2024-03-11T20:23:49.168Z,17.05
2024-03-11T20:26:59.847Z,16.10
2024-03-11T20:29:50.851Z,15.95
2024-03-11T20:32:26.108Z,14.15
2024-03-11T20:34:56.602Z,14.23
2024-03-11T20:37:26.337Z,16.38
2024-03-11T20:39:55.899Z,16.33
2024-03-11T20:42:25.370Z,16.77
2024-03-11T20:44:55.027Z,15.45
2024-03-11T20:47:24.465Z,16.20
2024-03-11T20:49:54.325Z,17.58
2024-03-11T20:52:26.316Z,18.27
2024-03-11T20:54:57.177Z,20.02
2024-03-11T20:57:27.955Z,17.02
2024-03-11T20:59:58.823Z,14.75
2024-03-11T21:02:28.517Z,14.90
2024-03-11T21:04:58.192Z,12.38
2024-03-11T21:07:27.854Z,16.38
2024-03-11T21:09:57.831Z,17.17
2024-03-11T21:12:27.445Z,12.73
2024-03-11T21:14:57.130Z,15.57
2024-03-11T21:17:29.711Z,15.40
2024-03-11T21:20:14.845Z,13.38
2024-03-11T21:22:44.441Z,15.43
2024-03-11T21:25:30.403Z,23.60
2024-03-11T21:27:59.970Z,15.18
2024-03-11T21:30:29.525Z,13.20
2024-03-11T21:32:59.157Z,15.57
2024-03-11T21:35:28.610Z,17.23
2024-03-11T21:38:08.561Z,15.93
2024-03-11T21:40:42.765Z,15.05
2024-03-11T21:43:12.274Z,15.70
2024-03-11T21:45:41.875Z,17.37
2024-03-11T21:48:12.533Z,13.15
2024-03-11T21:50:42.063Z,13.88
2024-03-11T21:53:12.657Z,13.07
2024-03-11T21:55:44.358Z,15.02
2024-03-11T21:58:14.138Z,14.32
2024-03-11T22:00:43.999Z,12.77
2024-03-11T22:03:16.372Z,12.75
2024-03-11T22:05:46.506Z,13.68
2024-03-11T22:08:16.128Z,16.48
2024-03-11T22:10:45.643Z,18.17
2024-03-11T22:13:15.116Z,18.57
2024-03-11T22:15:45.548Z,13.90
2024-03-11T22:18:15.722Z,17.80
2024-03-11T22:20:45.883Z,11.95
2024-03-11T22:23:15.541Z,13.52
2024-03-11T22:25:47.064Z,12.63
2024-03-11T22:28:19.415Z,20.58
2024-03-11T22:30:50.606Z,15.40
2024-03-11T22:33:20.093Z,15.52
2024-03-11T22:35:51.362Z,18.97
2024-03-11T22:38:20.906Z,14.02
2024-03-11T22:40:50.731Z,15.53
2024-03-11T22:43:20.226Z,16.42
2024-03-11T22:45:50.853Z,20.83
2024-03-11T22:48:20.565Z,16.05
2024-03-11T22:50:53.171Z,17.05
2024-03-11T22:53:24.214Z,18.73
2024-03-11T22:55:53.929Z,17.20
2024-03-11T22:58:24.232Z,19.60
2024-03-11T23:00:57.357Z,19.25
2024-03-11T23:03:27.740Z,15.73
2024-03-11T23:08:26.773Z,19.83
2024-03-11T23:10:57.946Z,21.60
2024-03-11T23:13:27.728Z,19.20
2024-03-11T23:15:57.395Z,17.40
2024-03-11T23:18:27.182Z,21.35
2024-03-11T23:20:57.405Z,16.70
2024-03-11T23:23:27.092Z,19.60
2024-03-11T23:25:57.963Z,17.75
2024-03-11T23:28:27.755Z,18.40
2024-03-11T23:31:00.172Z,21.25
2024-03-11T23:33:32.940Z,22.50
2024-03-11T23:36:04.612Z,19.38
2024-03-11T23:38:34.642Z,17.48
2024-03-11T23:41:05.495Z,16.38
2024-03-11T23:43:35.701Z,15.80
2024-03-11T23:46:06.218Z,20.75
2024-03-11T23:48:36.379Z,16.33
2024-03-11T23:51:06.057Z,14.45
2024-03-11T23:53:35.529Z,14.77
2024-03-11T23:56:05.149Z,16.77
2024-03-11T23:58:35.402Z,19.37
